sensor_id;sensor_type;location;lat;lon;timestamp;P1;durP1;ratioP1;P2;durP2;ratioP2
62941;SDS011;49042;47.318;19.874;2022-12-24T00:00:56;168.18;;;42.90;;
62941;SDS011;49042;47.318;19.874;2022-12-24T00:03:58;173.27;;;46.67;;
62941;SDS011;49042;47.318;19.874;2022-12-24T00:07:00;132.27;;;40.97;;
62941;SDS011;49042;47.318;19.874;2022-12-24T00:10:02;164.40;;;42.15;;
62941;SDS011;49042;47.318;19.874;2022-12-24T00:13:05;153.38;;;39.95;;
62941;SDS011;49042;47.318;19.874;2022-12-24T00:16:07;143.25;;;42.30;;
62941;SDS011;49042;47.318;19.874;2022-12-24T00:19:09;95.15;;;38.28;;
62941;SDS011;49042;47.318;19.874;2022-12-24T00:22:10;104.10;;;40.25;;
62941;SDS011;49042;47.318;19.874;2022-12-24T00:25:12;102.82;;;41.05;;
62941;SDS011;49042;47.318;19.874;2022-12-24T00:28:14;93.95;;;40.15;;
62941;SDS011;49042;47.318;19.874;2022-12-24T00:31:17;85.12;;;39.22;;
62941;SDS011;49042;47.318;19.874;2022-12-24T00:34:21;98.40;;;38.45;;
62941;SDS011;49042;47.318;19.874;2022-12-24T00:37:24;112.18;;;38.88;;
62941;SDS011;49042;47.318;19.874;2022-12-24T00:40:25;77.75;;;36.22;;
62941;SDS011;49042;47.318;19.874;2022-12-24T00:43:28;91.55;;;38.28;;
62941;SDS011;49042;47.318;19.874;2022-12-24T00:46:30;91.40;;;43.40;;
62941;SDS011;49042;47.318;19.874;2022-12-24T00:49:34;124.10;;;47.80;;
62941;SDS011;49042;47.318;19.874;2022-12-24T00:52:35;115.65;;;43.85;;
62941;SDS011;49042;47.318;19.874;2022-12-24T00:55:37;190.62;;;43.67;;
62941;SDS011;49042;47.318;19.874;2022-12-24T00:58:39;88.90;;;38.88;;
62941;SDS011;49042;47.318;19.874;2022-12-24T01:01:40;112.40;;;40.25;;
62941;SDS011;49042;47.318;19.874;2022-12-24T01:04:42;89.53;;;41.45;;
62941;SDS011;49042;47.318;19.874;2022-12-24T01:08:03;130.05;;;44.10;;
62941;SDS011;49042;47.318;19.874;2022-12-24T01:11:05;108.95;;;41.80;;
62941;SDS011;49042;47.318;19.874;2022-12-24T01:14:07;106.47;;;42.62;;
62941;SDS011;49042;47.318;19.874;2022-12-24T01:17:09;146.23;;;47.72;;
62941;SDS011;49042;47.318;19.874;2022-12-24T01:20:13;102.82;;;46.65;;
62941;SDS011;49042;47.318;19.874;2022-12-24T01:23:16;128.20;;;47.60;;
62941;SDS011;49042;47.318;19.874;2022-12-24T01:26:18;116.37;;;46.58;;
62941;SDS011;49042;47.318;19.874;2022-12-24T01:29:20;96.18;;;47.90;;
62941;SDS011;49042;47.318;19.874;2022-12-24T01:32:21;96.45;;;47.70;;
62941;SDS011;49042;47.318;19.874;2022-12-24T01:35:23;86.15;;;44.95;;
62941;SDS011;49042;47.318;19.874;2022-12-24T01:38:25;97.22;;;44.88;;
62941;SDS011;49042;47.318;19.874;2022-12-24T01:41:26;81.28;;;45.72;;
62941;SDS011;49042;47.318;19.874;2022-12-24T01:44:49;93.78;;;45.58;;
62941;SDS011;49042;47.318;19.874;2022-12-24T01:47:52;141.27;;;44.83;;
62941;SDS011;49042;47.318;19.874;2022-12-24T01:50:55;82.15;;;42.05;;
62941;SDS011;49042;47.318;19.874;2022-12-24T01:57:15;89.32;;;40.63;;
62941;SDS011;49042;47.318;19.874;2022-12-24T02:00:23;107.18;;;42.65;;
62941;SDS011;49042;47.318;19.874;2022-12-24T02:03:24;89.72;;;41.65;;
62941;SDS011;49042;47.318;19.874;2022-12-24T02:06:26;99.75;;;48.58;;
62941;SDS011;49042;47.318;19.874;2022-12-24T02:09:28;86.25;;;45.08;;
62941;SDS011;49042;47.318;19.874;2022-12-24T02:12:31;86.82;;;44.83;;
62941;SDS011;49042;47.318;19.874;2022-12-24T02:16:22;92.88;;;45.47;;
62941;SDS011;49042;47.318;19.874;2022-12-24T02:22:22;83.85;;;42.08;;
62941;SDS011;49042;47.318;19.874;2022-12-24T02:39:01;81.35;;;44.30;;
62941;SDS011;49042;47.318;19.874;2022-12-24T02:42:06;79.20;;;44.05;;
62941;SDS011;49042;47.318;19.874;2022-12-24T02:45:12;75.37;;;43.95;;
62941;SDS011;49042;47.318;19.874;2022-12-24T02:48:22;74.47;;;41.15;;
62941;SDS011;49042;47.318;19.874;2022-12-24T02:51:24;70.45;;;41.50;;
62941;SDS011;49042;47.318;19.874;2022-12-24T02:54:26;68.28;;;40.60;;
62941;SDS011;49042;47.318;19.874;2022-12-24T02:57:35;68.07;;;39.40;;
62941;SDS011;49042;47.318;19.874;2022-12-24T03:00:46;71.53;;;43.53;;
62941;SDS011;49042;47.318;19.874;2022-12-24T03:03:59;66.70;;;41.08;;
62941;SDS011;49042;47.318;19.874;2022-12-24T03:07:22;67.03;;;41.63;;
62941;SDS011;49042;47.318;19.874;2022-12-24T03:10:35;69.12;;;41.28;;
62941;SDS011;49042;47.318;19.874;2022-12-24T03:13:51;65.75;;;40.83;;
62941;SDS011;49042;47.318;19.874;2022-12-24T03:16:57;69.03;;;43.80;;
62941;SDS011;49042;47.318;19.874;2022-12-24T03:19:59;64.18;;;40.53;;
62941;SDS011;49042;47.318;19.874;2022-12-24T03:23:02;65.70;;;41.45;;
62941;SDS011;49042;47.318;19.874;2022-12-24T03:26:05;61.47;;;41.33;;
62941;SDS011;49042;47.318;19.874;2022-12-24T03:29:09;62.05;;;40.15;;
62941;SDS011;49042;47.318;19.874;2022-12-24T03:32:11;62.65;;;38.53;;
62941;SDS011;49042;47.318;19.874;2022-12-24T03:35:13;67.85;;;40.28;;
62941;SDS011;49042;47.318;19.874;2022-12-24T03:38:14;60.80;;;38.47;;
62941;SDS011;49042;47.318;19.874;2022-12-24T03:41:16;63.00;;;39.50;;
62941;SDS011;49042;47.318;19.874;2022-12-24T03:44:18;60.42;;;38.35;;
62941;SDS011;49042;47.318;19.874;2022-12-24T03:47:19;57.25;;;36.30;;
62941;SDS011;49042;47.318;19.874;2022-12-24T03:50:21;57.10;;;36.35;;
62941;SDS011;49042;47.318;19.874;2022-12-24T03:53:23;56.10;;;37.78;;
62941;SDS011;49042;47.318;19.874;2022-12-24T03:56:25;58.72;;;35.53;;
62941;SDS011;49042;47.318;19.874;2022-12-24T03:59:27;58.00;;;36.35;;
62941;SDS011;49042;47.318;19.874;2022-12-24T04:02:28;53.58;;;34.40;;
62941;SDS011;49042;47.318;19.874;2022-12-24T04:05:30;55.03;;;35.03;;
62941;SDS011;49042;47.318;19.874;2022-12-24T04:08:32;58.55;;;36.03;;
62941;SDS011;49042;47.318;19.874;2022-12-24T04:11:34;57.22;;;34.70;;
62941;SDS011;49042;47.318;19.874;2022-12-24T04:14:36;60.58;;;36.50;;
62941;SDS011;49042;47.318;19.874;2022-12-24T04:17:37;55.70;;;35.05;;
62941;SDS011;49042;47.318;19.874;2022-12-24T04:20:39;55.55;;;34.20;;
62941;SDS011;49042;47.318;19.874;2022-12-24T04:23:41;54.53;;;33.97;;
62941;SDS011;49042;47.318;19.874;2022-12-24T04:26:43;49.38;;;31.27;;
62941;SDS011;49042;47.318;19.874;2022-12-24T04:29:45;54.25;;;32.47;;
62941;SDS011;49042;47.318;19.874;2022-12-24T04:32:47;49.45;;;31.58;;
62941;SDS011;49042;47.318;19.874;2022-12-24T04:35:48;60.12;;;31.77;;
62941;SDS011;49042;47.318;19.874;2022-12-24T04:38:50;45.03;;;27.85;;
62941;SDS011;49042;47.318;19.874;2022-12-24T04:41:52;40.15;;;23.67;;
62941;SDS011;49042;47.318;19.874;2022-12-24T04:44:53;36.17;;;21.08;;
62941;SDS011;49042;47.318;19.874;2022-12-24T04:47:55;39.70;;;18.70;;
62941;SDS011;49042;47.318;19.874;2022-12-24T04:50:57;29.67;;;17.48;;
62941;SDS011;49042;47.318;19.874;2022-12-24T04:54:01;32.30;;;17.37;;
62941;SDS011;49042;47.318;19.874;2022-12-24T04:57:04;31.33;;;17.02;;
62941;SDS011;49042;47.318;19.874;2022-12-24T05:00:07;32.97;;;18.40;;
62941;SDS011;49042;47.318;19.874;2022-12-24T05:03:09;31.80;;;18.23;;
62941;SDS011;49042;47.318;19.874;2022-12-24T05:06:12;32.70;;;18.08;;
62941;SDS011;49042;47.318;19.874;2022-12-24T05:09:15;34.92;;;18.37;;
62941;SDS011;49042;47.318;19.874;2022-12-24T05:12:17;38.17;;;18.42;;
62941;SDS011;49042;47.318;19.874;2022-12-24T05:15:18;28.20;;;17.87;;
62941;SDS011;49042;47.318;19.874;2022-12-24T05:18:20;31.08;;;18.15;;
62941;SDS011;49042;47.318;19.874;2022-12-24T05:21:23;38.25;;;18.10;;
62941;SDS011;49042;47.318;19.874;2022-12-24T05:24:25;28.00;;;17.83;;
62941;SDS011;49042;47.318;19.874;2022-12-24T05:28:02;37.65;;;22.05;;
62941;SDS011;49042;47.318;19.874;2022-12-24T05:31:04;36.65;;;22.15;;
62941;SDS011;49042;47.318;19.874;2022-12-24T05:34:06;38.30;;;22.13;;
62941;SDS011;49042;47.318;19.874;2022-12-24T05:37:08;38.35;;;20.58;;
62941;SDS011;49042;47.318;19.874;2022-12-24T05:40:10;31.48;;;19.37;;
62941;SDS011;49042;47.318;19.874;2022-12-24T05:43:12;30.50;;;19.35;;
62941;SDS011;49042;47.318;19.874;2022-12-24T05:46:14;32.13;;;18.92;;
62941;SDS011;49042;47.318;19.874;2022-12-24T05:49:19;34.75;;;18.90;;
62941;SDS011;49042;47.318;19.874;2022-12-24T05:52:21;30.12;;;18.35;;
62941;SDS011;49042;47.318;19.874;2022-12-24T05:55:22;32.13;;;19.37;;
62941;SDS011;49042;47.318;19.874;2022-12-24T05:58:24;32.08;;;19.10;;
62941;SDS011;49042;47.318;19.874;2022-12-24T06:01:26;76.57;;;38.38;;
62941;SDS011;49042;47.318;19.874;2022-12-24T06:04:28;30.27;;;18.67;;
62941;SDS011;49042;47.318;19.874;2022-12-24T06:07:30;37.53;;;21.08;;
62941;SDS011;49042;47.318;19.874;2022-12-24T06:10:31;39.65;;;19.17;;
62941;SDS011;49042;47.318;19.874;2022-12-24T06:13:33;33.67;;;19.48;;
62941;SDS011;49042;47.318;19.874;2022-12-24T06:16:35;35.30;;;18.90;;
62941;SDS011;49042;47.318;19.874;2022-12-24T06:19:37;35.72;;;18.55;;
62941;SDS011;49042;47.318;19.874;2022-12-24T06:22:39;26.90;;;17.27;;
62941;SDS011;49042;47.318;19.874;2022-12-24T06:25:40;29.25;;;18.10;;
62941;SDS011;49042;47.318;19.874;2022-12-24T06:28:42;29.55;;;17.10;;
62941;SDS011;49042;47.318;19.874;2022-12-24T06:31:44;33.30;;;17.17;;
62941;SDS011;49042;47.318;19.874;2022-12-24T06:34:46;38.38;;;21.05;;
62941;SDS011;49042;47.318;19.874;2022-12-24T06:37:48;32.97;;;19.33;;
62941;SDS011;49042;47.318;19.874;2022-12-24T06:40:49;27.00;;;17.33;;
62941;SDS011;49042;47.318;19.874;2022-12-24T06:43:52;30.35;;;17.70;;
62941;SDS011;49042;47.318;19.874;2022-12-24T06:46:54;31.08;;;17.45;;
62941;SDS011;49042;47.318;19.874;2022-12-24T06:49:55;29.50;;;17.15;;
62941;SDS011;49042;47.318;19.874;2022-12-24T06:52:57;27.75;;;15.77;;
62941;SDS011;49042;47.318;19.874;2022-12-24T06:56:06;29.85;;;17.55;;
62941;SDS011;49042;47.318;19.874;2022-12-24T06:59:09;28.40;;;17.15;;
62941;SDS011;49042;47.318;19.874;2022-12-24T07:02:10;27.60;;;17.12;;
62941;SDS011;49042;47.318;19.874;2022-12-24T07:05:13;28.62;;;18.45;;
62941;SDS011;49042;47.318;19.874;2022-12-24T07:08:15;29.35;;;16.73;;
62941;SDS011;49042;47.318;19.874;2022-12-24T07:11:16;29.58;;;18.30;;
62941;SDS011;49042;47.318;19.874;2022-12-24T07:14:18;27.58;;;17.27;;
62941;SDS011;49042;47.318;19.874;2022-12-24T07:17:20;33.90;;;19.40;;
62941;SDS011;49042;47.318;19.874;2022-12-24T07:20:22;29.92;;;16.85;;
62941;SDS011;49042;47.318;19.874;2022-12-24T07:23:24;28.90;;;16.58;;
62941;SDS011;49042;47.318;19.874;2022-12-24T07:26:25;25.05;;;15.65;;
62941;SDS011;49042;47.318;19.874;2022-12-24T07:29:27;30.42;;;16.52;;
62941;SDS011;49042;47.318;19.874;2022-12-24T07:32:29;27.27;;;16.27;;
62941;SDS011;49042;47.318;19.874;2022-12-24T07:35:31;25.52;;;16.27;;
62941;SDS011;49042;47.318;19.874;2022-12-24T07:38:33;28.50;;;16.42;;
62941;SDS011;49042;47.318;19.874;2022-12-24T07:41:35;29.95;;;15.50;;
62941;SDS011;49042;47.318;19.874;2022-12-24T07:44:42;26.55;;;14.90;;
62941;SDS011;49042;47.318;19.874;2022-12-24T07:47:43;22.98;;;14.87;;
62941;SDS011;49042;47.318;19.874;2022-12-24T07:50:47;24.80;;;15.63;;
62941;SDS011;49042;47.318;19.874;2022-12-24T07:53:50;28.62;;;15.98;;
62941;SDS011;49042;47.318;19.874;2022-12-24T07:56:51;26.30;;;14.68;;
62941;SDS011;49042;47.318;19.874;2022-12-24T07:59:53;26.98;;;15.52;;
62941;SDS011;49042;47.318;19.874;2022-12-24T08:02:54;26.73;;;15.27;;
62941;SDS011;49042;47.318;19.874;2022-12-24T08:05:57;25.17;;;15.45;;
62941;SDS011;49042;47.318;19.874;2022-12-24T08:08:58;23.87;;;13.93;;
62941;SDS011;49042;47.318;19.874;2022-12-24T08:12:00;22.20;;;14.45;;
62941;SDS011;49042;47.318;19.874;2022-12-24T08:15:05;27.65;;;15.70;;
62941;SDS011;49042;47.318;19.874;2022-12-24T08:18:07;28.50;;;16.35;;
62941;SDS011;49042;47.318;19.874;2022-12-24T08:21:09;28.08;;;16.30;;
62941;SDS011;49042;47.318;19.874;2022-12-24T08:24:11;36.58;;;18.05;;
62941;SDS011;49042;47.318;19.874;2022-12-24T08:27:13;33.92;;;17.00;;
62941;SDS011;49042;47.318;19.874;2022-12-24T08:30:14;39.20;;;20.88;;
62941;SDS011;49042;47.318;19.874;2022-12-24T08:33:21;33.40;;;17.35;;
62941;SDS011;49042;47.318;19.874;2022-12-24T08:36:23;30.37;;;18.25;;
62941;SDS011;49042;47.318;19.874;2022-12-24T08:39:25;31.92;;;17.67;;
62941;SDS011;49042;47.318;19.874;2022-12-24T08:42:27;40.15;;;17.90;;
62941;SDS011;49042;47.318;19.874;2022-12-24T08:45:29;31.80;;;17.27;;
62941;SDS011;49042;47.318;19.874;2022-12-24T08:48:40;30.37;;;14.85;;
62941;SDS011;49042;47.318;19.874;2022-12-24T08:51:41;26.48;;;14.43;;
62941;SDS011;49042;47.318;19.874;2022-12-24T08:54:43;24.77;;;14.25;;
62941;SDS011;49042;47.318;19.874;2022-12-24T08:57:45;20.80;;;12.73;;
62941;SDS011;49042;47.318;19.874;2022-12-24T09:00:46;21.33;;;13.82;;
62941;SDS011;49042;47.318;19.874;2022-12-24T09:03:48;20.65;;;12.90;;
62941;SDS011;49042;47.318;19.874;2022-12-24T09:06:50;22.33;;;13.40;;
62941;SDS011;49042;47.318;19.874;2022-12-24T09:09:51;31.17;;;19.80;;
62941;SDS011;49042;47.318;19.874;2022-12-24T09:12:53;37.22;;;20.80;;
62941;SDS011;49042;47.318;19.874;2022-12-24T09:15:55;39.95;;;21.70;;
62941;SDS011;49042;47.318;19.874;2022-12-24T09:18:57;22.15;;;13.65;;
62941;SDS011;49042;47.318;19.874;2022-12-24T09:21:59;30.37;;;16.75;;
62941;SDS011;49042;47.318;19.874;2022-12-24T09:25:00;37.78;;;21.10;;
62941;SDS011;49042;47.318;19.874;2022-12-24T09:28:02;74.32;;;32.67;;
62941;SDS011;49042;47.318;19.874;2022-12-24T09:31:04;38.38;;;20.08;;
62941;SDS011;49042;47.318;19.874;2022-12-24T09:34:06;27.10;;;17.10;;
62941;SDS011;49042;47.318;19.874;2022-12-24T09:37:08;27.80;;;15.48;;
62941;SDS011;49042;47.318;19.874;2022-12-24T09:40:15;26.25;;;16.35;;
62941;SDS011;49042;47.318;19.874;2022-12-24T09:43:27;31.95;;;14.20;;
62941;SDS011;49042;47.318;19.874;2022-12-24T09:46:33;18.08;;;11.90;;
62941;SDS011;49042;47.318;19.874;2022-12-24T09:49:41;27.27;;;16.30;;
62941;SDS011;49042;47.318;19.874;2022-12-24T09:52:47;19.20;;;12.77;;
62941;SDS011;49042;47.318;19.874;2022-12-24T09:55:51;20.80;;;11.93;;
62941;SDS011;49042;47.318;19.874;2022-12-24T09:59:00;21.00;;;12.75;;
62941;SDS011;49042;47.318;19.874;2022-12-24T10:02:06;23.75;;;13.75;;
62941;SDS011;49042;47.318;19.874;2022-12-24T10:05:14;25.67;;;14.35;;
62941;SDS011;49042;47.318;19.874;2022-12-24T10:12:00;18.83;;;13.02;;
62941;SDS011;49042;47.318;19.874;2022-12-24T10:15:15;20.58;;;13.13;;
62941;SDS011;49042;47.318;19.874;2022-12-24T10:25:25;17.55;;;11.40;;
62941;SDS011;49042;47.318;19.874;2022-12-24T10:29:20;17.00;;;11.32;;
62941;SDS011;49042;47.318;19.874;2022-12-24T10:38:19;20.45;;;12.02;;
62941;SDS011;49042;47.318;19.874;2022-12-24T10:41:21;19.73;;;11.45;;
62941;SDS011;49042;47.318;19.874;2022-12-24T10:44:25;17.30;;;10.60;;
62941;SDS011;49042;47.318;19.874;2022-12-24T10:47:32;18.52;;;9.90;;
62941;SDS011;49042;47.318;19.874;2022-12-24T10:50:42;18.33;;;9.40;;
62941;SDS011;49042;47.318;19.874;2022-12-24T10:54:04;16.00;;;10.20;;
62941;SDS011;49042;47.318;19.874;2022-12-24T10:57:21;21.27;;;10.05;;
62941;SDS011;49042;47.318;19.874;2022-12-24T11:00:26;17.15;;;9.90;;
62941;SDS011;49042;47.318;19.874;2022-12-24T11:03:36;16.27;;;9.75;;
62941;SDS011;49042;47.318;19.874;2022-12-24T11:10:05;21.50;;;13.57;;
62941;SDS011;49042;47.318;19.874;2022-12-24T11:13:21;23.55;;;13.43;;
62941;SDS011;49042;47.318;19.874;2022-12-24T11:16:38;23.65;;;12.95;;
62941;SDS011;49042;47.318;19.874;2022-12-24T11:19:40;18.08;;;11.90;;
62941;SDS011;49042;47.318;19.874;2022-12-24T11:22:48;20.70;;;11.65;;
62941;SDS011;49042;47.318;19.874;2022-12-24T11:25:50;22.62;;;12.35;;
62941;SDS011;49042;47.318;19.874;2022-12-24T11:29:13;22.02;;;12.27;;
62941;SDS011;49042;47.318;19.874;2022-12-24T11:32:17;21.25;;;12.55;;
62941;SDS011;49042;47.318;19.874;2022-12-24T11:35:21;19.70;;;10.52;;
62941;SDS011;49042;47.318;19.874;2022-12-24T11:38:25;17.15;;;9.93;;
62941;SDS011;49042;47.318;19.874;2022-12-24T11:41:34;17.77;;;10.48;;
62941;SDS011;49042;47.318;19.874;2022-12-24T11:44:38;20.27;;;10.82;;
62941;SDS011;49042;47.318;19.874;2022-12-24T11:47:49;16.80;;;9.55;;
62941;SDS011;49042;47.318;19.874;2022-12-24T11:50:55;16.12;;;9.60;;
62941;SDS011;49042;47.318;19.874;2022-12-24T11:57:24;17.55;;;9.77;;
62941;SDS011;49042;47.318;19.874;2022-12-24T12:00:32;17.42;;;9.23;;
62941;SDS011;49042;47.318;19.874;2022-12-24T12:03:41;12.90;;;8.32;;
62941;SDS011;49042;47.318;19.874;2022-12-24T12:06:54;15.52;;;7.72;;
62941;SDS011;49042;47.318;19.874;2022-12-24T12:13:09;11.07;;;7.30;;
62941;SDS011;49042;47.318;19.874;2022-12-24T12:16:24;11.95;;;7.47;;
62941;SDS011;49042;47.318;19.874;2022-12-24T12:19:58;12.20;;;6.93;;
62941;SDS011;49042;47.318;19.874;2022-12-24T12:23:10;13.45;;;7.85;;
62941;SDS011;49042;47.318;19.874;2022-12-24T12:26:30;9.43;;;6.62;;
62941;SDS011;49042;47.318;19.874;2022-12-24T12:29:35;12.27;;;7.57;;
62941;SDS011;49042;47.318;19.874;2022-12-24T12:36:07;14.70;;;7.30;;
62941;SDS011;49042;47.318;19.874;2022-12-24T12:39:12;11.27;;;7.10;;
62941;SDS011;49042;47.318;19.874;2022-12-24T12:42:16;24.63;;;11.07;;
62941;SDS011;49042;47.318;19.874;2022-12-24T12:45:46;20.70;;;10.70;;
62941;SDS011;49042;47.318;19.874;2022-12-24T13:06:20;12.70;;;7.45;;
62941;SDS011;49042;47.318;19.874;2022-12-24T13:16:10;11.85;;;6.35;;
62941;SDS011;49042;47.318;19.874;2022-12-24T13:23:25;10.73;;;4.45;;
62941;SDS011;49042;47.318;19.874;2022-12-24T13:26:21;6.18;;;3.95;;
62941;SDS011;49042;47.318;19.874;2022-12-24T13:32:39;10.48;;;3.80;;
62941;SDS011;49042;47.318;19.874;2022-12-24T13:36:00;5.05;;;2.75;;
62941;SDS011;49042;47.318;19.874;2022-12-24T13:39:22;6.43;;;2.55;;
62941;SDS011;49042;47.318;19.874;2022-12-24T13:46:13;6.12;;;2.17;;
62941;SDS011;49042;47.318;19.874;2022-12-24T13:49:48;6.97;;;2.50;;
62941;SDS011;49042;47.318;19.874;2022-12-24T13:52:55;16.65;;;5.18;;
62941;SDS011;49042;47.318;19.874;2022-12-24T13:59:12;12.37;;;5.95;;
62941;SDS011;49042;47.318;19.874;2022-12-24T14:02:26;7.57;;;2.50;;
62941;SDS011;49042;47.318;19.874;2022-12-24T14:05:35;8.85;;;3.40;;
62941;SDS011;49042;47.318;19.874;2022-12-24T14:08:40;10.00;;;3.70;;
62941;SDS011;49042;47.318;19.874;2022-12-24T14:15:04;13.68;;;3.55;;
62941;SDS011;49042;47.318;19.874;2022-12-24T14:18:40;14.85;;;4.03;;
62941;SDS011;49042;47.318;19.874;2022-12-24T14:21:50;11.00;;;4.30;;
62941;SDS011;49042;47.318;19.874;2022-12-24T14:24:56;15.65;;;5.35;;
62941;SDS011;49042;47.318;19.874;2022-12-24T14:28:04;9.50;;;3.58;;
62941;SDS011;49042;47.318;19.874;2022-12-24T14:31:16;6.30;;;2.33;;
62941;SDS011;49042;47.318;19.874;2022-12-24T14:34:20;10.73;;;3.70;;
62941;SDS011;49042;47.318;19.874;2022-12-24T14:37:21;8.23;;;2.75;;
62941;SDS011;49042;47.318;19.874;2022-12-24T14:40:27;11.30;;;3.50;;
62941;SDS011;49042;47.318;19.874;2022-12-24T14:47:05;5.25;;;2.45;;
62941;SDS011;49042;47.318;19.874;2022-12-24T14:57:29;7.18;;;2.80;;
62941;SDS011;49042;47.318;19.874;2022-12-24T15:00:31;10.38;;;4.00;;
62941;SDS011;49042;47.318;19.874;2022-12-24T15:03:39;4.60;;;2.30;;
62941;SDS011;49042;47.318;19.874;2022-12-24T15:09:53;9.40;;;3.33;;
62941;SDS011;49042;47.318;19.874;2022-12-24T15:12:55;9.60;;;3.00;;
62941;SDS011;49042;47.318;19.874;2022-12-24T15:16:02;9.43;;;4.53;;
62941;SDS011;49042;47.318;19.874;2022-12-24T15:19:23;6.82;;;2.80;;
62941;SDS011;49042;47.318;19.874;2022-12-24T15:22:29;9.07;;;2.62;;
62941;SDS011;49042;47.318;19.874;2022-12-24T15:25:32;6.47;;;3.33;;
62941;SDS011;49042;47.318;19.874;2022-12-24T15:28:35;4.80;;;2.20;;
62941;SDS011;49042;47.318;19.874;2022-12-24T15:31:38;7.85;;;2.28;;
62941;SDS011;49042;47.318;19.874;2022-12-24T15:34:41;9.63;;;3.60;;
62941;SDS011;49042;47.318;19.874;2022-12-24T15:37:45;5.80;;;1.73;;
62941;SDS011;49042;47.318;19.874;2022-12-24T15:40:48;9.70;;;2.08;;
62941;SDS011;49042;47.318;19.874;2022-12-24T15:43:50;8.52;;;1.73;;
62941;SDS011;49042;47.318;19.874;2022-12-24T15:46:57;8.60;;;1.80;;
62941;SDS011;49042;47.318;19.874;2022-12-24T15:50:00;6.32;;;1.83;;
62941;SDS011;49042;47.318;19.874;2022-12-24T15:53:02;4.68;;;1.80;;
62941;SDS011;49042;47.318;19.874;2022-12-24T15:59:37;4.47;;;1.55;;
62941;SDS011;49042;47.318;19.874;2022-12-24T16:02:39;7.80;;;1.83;;
62941;SDS011;49042;47.318;19.874;2022-12-24T16:05:42;8.02;;;1.42;;
62941;SDS011;49042;47.318;19.874;2022-12-24T16:08:45;7.80;;;1.52;;
62941;SDS011;49042;47.318;19.874;2022-12-24T16:11:47;4.78;;;1.73;;
62941;SDS011;49042;47.318;19.874;2022-12-24T16:14:53;7.03;;;2.40;;
62941;SDS011;49042;47.318;19.874;2022-12-24T16:17:57;5.72;;;1.98;;
62941;SDS011;49042;47.318;19.874;2022-12-24T16:20:59;5.62;;;1.75;;
62941;SDS011;49042;47.318;19.874;2022-12-24T16:24:06;11.50;;;1.77;;
62941;SDS011;49042;47.318;19.874;2022-12-24T16:27:15;5.82;;;2.12;;
62941;SDS011;49042;47.318;19.874;2022-12-24T16:30:17;6.47;;;3.53;;
62941;SDS011;49042;47.318;19.874;2022-12-24T16:33:19;7.40;;;2.60;;
62941;SDS011;49042;47.318;19.874;2022-12-24T16:36:22;6.85;;;4.00;;
62941;SDS011;49042;47.318;19.874;2022-12-24T16:39:31;10.10;;;5.72;;
62941;SDS011;49042;47.318;19.874;2022-12-24T16:42:34;13.65;;;5.90;;
62941;SDS011;49042;47.318;19.874;2022-12-24T16:46:01;12.25;;;6.15;;
62941;SDS011;49042;47.318;19.874;2022-12-24T16:49:05;20.50;;;9.95;;
62941;SDS011;49042;47.318;19.874;2022-12-24T16:52:15;17.45;;;8.35;;
62941;SDS011;49042;47.318;19.874;2022-12-24T16:55:22;12.60;;;3.20;;
62941;SDS011;49042;47.318;19.874;2022-12-24T16:58:24;11.43;;;4.28;;
62941;SDS011;49042;47.318;19.874;2022-12-24T17:01:25;10.95;;;4.28;;
62941;SDS011;49042;47.318;19.874;2022-12-24T17:04:29;15.45;;;6.28;;
62941;SDS011;49042;47.318;19.874;2022-12-24T17:07:32;18.65;;;6.68;;
62941;SDS011;49042;47.318;19.874;2022-12-24T17:10:39;16.90;;;7.20;;
62941;SDS011;49042;47.318;19.874;2022-12-24T17:13:49;16.50;;;6.78;;
62941;SDS011;49042;47.318;19.874;2022-12-24T17:16:51;15.70;;;7.20;;
62941;SDS011;49042;47.318;19.874;2022-12-24T17:19:53;16.15;;;6.55;;
62941;SDS011;49042;47.318;19.874;2022-12-24T17:22:56;10.10;;;5.10;;
62941;SDS011;49042;47.318;19.874;2022-12-24T17:25:59;11.93;;;4.82;;
62941;SDS011;49042;47.318;19.874;2022-12-24T17:29:00;11.43;;;4.93;;
62941;SDS011;49042;47.318;19.874;2022-12-24T17:32:05;10.20;;;4.47;;
62941;SDS011;49042;47.318;19.874;2022-12-24T17:35:07;8.88;;;3.70;;
62941;SDS011;49042;47.318;19.874;2022-12-24T17:38:09;6.70;;;3.58;;
62941;SDS011;49042;47.318;19.874;2022-12-24T17:41:12;9.80;;;3.45;;
62941;SDS011;49042;47.318;19.874;2022-12-24T17:44:18;9.82;;;3.65;;
62941;SDS011;49042;47.318;19.874;2022-12-24T17:47:19;8.63;;;2.95;;
62941;SDS011;49042;47.318;19.874;2022-12-24T17:50:21;8.90;;;4.55;;
62941;SDS011;49042;47.318;19.874;2022-12-24T17:53:23;12.90;;;5.72;;
62941;SDS011;49042;47.318;19.874;2022-12-24T17:56:24;19.20;;;6.18;;
62941;SDS011;49042;47.318;19.874;2022-12-24T17:59:26;15.93;;;7.07;;
62941;SDS011;49042;47.318;19.874;2022-12-24T18:02:29;18.92;;;7.95;;
62941;SDS011;49042;47.318;19.874;2022-12-24T18:05:34;17.35;;;7.15;;
62941;SDS011;49042;47.318;19.874;2022-12-24T18:08:36;18.27;;;8.38;;
62941;SDS011;49042;47.318;19.874;2022-12-24T18:11:39;16.65;;;6.93;;
62941;SDS011;49042;47.318;19.874;2022-12-24T18:14:42;16.25;;;4.78;;
62941;SDS011;49042;47.318;19.874;2022-12-24T18:17:43;12.35;;;5.82;;
62941;SDS011;49042;47.318;19.874;2022-12-24T18:20:49;16.10;;;5.50;;
62941;SDS011;49042;47.318;19.874;2022-12-24T18:23:51;17.25;;;6.57;;
62941;SDS011;49042;47.318;19.874;2022-12-24T18:26:55;12.37;;;5.40;;
62941;SDS011;49042;47.318;19.874;2022-12-24T18:29:57;10.85;;;4.57;;
62941;SDS011;49042;47.318;19.874;2022-12-24T18:32:59;10.20;;;3.60;;
62941;SDS011;49042;47.318;19.874;2022-12-24T18:36:01;11.82;;;3.65;;
62941;SDS011;49042;47.318;19.874;2022-12-24T18:39:03;8.73;;;4.12;;
62941;SDS011;49042;47.318;19.874;2022-12-24T18:42:06;8.38;;;4.30;;
62941;SDS011;49042;47.318;19.874;2022-12-24T18:45:14;14.32;;;4.37;;
62941;SDS011;49042;47.318;19.874;2022-12-24T18:48:16;12.23;;;3.85;;
62941;SDS011;49042;47.318;19.874;2022-12-24T18:51:18;9.80;;;4.12;;
62941;SDS011;49042;47.318;19.874;2022-12-24T18:54:22;11.43;;;4.45;;
62941;SDS011;49042;47.318;19.874;2022-12-24T18:57:24;10.98;;;4.85;;
62941;SDS011;49042;47.318;19.874;2022-12-24T19:00:26;14.05;;;4.68;;
62941;SDS011;49042;47.318;19.874;2022-12-24T19:03:28;13.32;;;4.50;;
62941;SDS011;49042;47.318;19.874;2022-12-24T19:06:29;11.45;;;4.75;;
62941;SDS011;49042;47.318;19.874;2022-12-24T19:09:31;11.15;;;4.85;;
62941;SDS011;49042;47.318;19.874;2022-12-24T19:12:33;12.20;;;5.82;;
62941;SDS011;49042;47.318;19.874;2022-12-24T19:15:35;10.02;;;4.82;;
62941;SDS011;49042;47.318;19.874;2022-12-24T19:18:41;11.40;;;5.57;;
62941;SDS011;49042;47.318;19.874;2022-12-24T19:21:43;8.50;;;5.90;;
62941;SDS011;49042;47.318;19.874;2022-12-24T19:24:45;14.85;;;5.95;;
62941;SDS011;49042;47.318;19.874;2022-12-24T19:27:46;15.45;;;6.15;;
62941;SDS011;49042;47.318;19.874;2022-12-24T19:30:48;15.10;;;7.05;;
62941;SDS011;49042;47.318;19.874;2022-12-24T19:33:51;16.30;;;7.18;;
62941;SDS011;49042;47.318;19.874;2022-12-24T19:36:54;13.65;;;6.15;;
62941;SDS011;49042;47.318;19.874;2022-12-24T19:39:56;11.90;;;5.85;;
62941;SDS011;49042;47.318;19.874;2022-12-24T19:42:57;11.55;;;6.07;;